createdAt,value
2018-04-22T00:01:13.390Z,9.96
2018-04-22T00:03:39.170Z,10.09
2018-04-22T00:06:04.952Z,9.75
2018-04-22T00:08:30.732Z,9.76
2018-04-22T00:10:56.502Z,9.83
2018-04-22T00:13:22.303Z,9.90
2018-04-22T00:15:48.092Z,9.85
2018-04-22T00:18:13.870Z,10.40
2018-04-22T00:20:39.666Z,9.98
2018-04-22T00:23:05.454Z,9.84
2018-04-22T00:25:31.224Z,9.49
2018-04-22T00:27:57.016Z,9.58
2018-04-22T00:30:22.803Z,9.15
2018-04-22T00:32:48.577Z,9.35
2018-04-22T00:35:14.369Z,9.47
2018-04-22T00:37:40.141Z,10.06
2018-04-22T00:40:05.923Z,9.74
2018-04-22T00:42:31.706Z,9.89
2018-04-22T00:44:57.497Z,9.77
2018-04-22T00:47:23.278Z,9.37
2018-04-22T00:49:49.050Z,9.52
2018-04-22T00:52:14.847Z,9.66
2018-04-22T00:54:40.632Z,9.00
2018-04-22T00:57:06.429Z,9.27
2018-04-22T00:59:32.223Z,9.33
2018-04-22T01:01:58.050Z,9.05
2018-04-22T01:04:23.845Z,8.68
2018-04-22T01:06:49.646Z,8.84
2018-04-22T01:09:15.437Z,8.71
2018-04-22T01:11:41.217Z,8.22
2018-04-22T01:14:07.006Z,8.47
2018-04-22T01:16:32.778Z,8.36
2018-04-22T01:18:58.647Z,8.35
2018-04-22T01:21:24.441Z,8.29
2018-04-22T01:23:50.229Z,8.81
2018-04-22T01:26:16.030Z,8.68
2018-04-22T01:28:41.816Z,8.40
2018-04-22T01:31:07.586Z,8.16
2018-04-22T01:33:33.385Z,8.35
2018-04-22T01:35:59.171Z,9.04
2018-04-22T01:38:24.942Z,9.10
2018-04-22T01:40:50.734Z,8.90
2018-04-22T01:43:16.538Z,8.88
2018-04-22T01:45:42.334Z,9.08
2018-04-22T01:48:08.114Z,8.82
2018-04-22T01:50:33.892Z,8.68
2018-04-22T01:52:59.694Z,8.98
2018-04-22T01:55:25.473Z,9.12
2018-04-22T01:57:51.326Z,8.83
2018-04-22T02:00:17.149Z,8.62
2018-04-22T02:02:42.956Z,8.20
2018-04-22T02:05:08.739Z,8.99
2018-04-22T02:07:34.525Z,9.02
2018-04-22T02:10:00.305Z,8.80
2018-04-22T02:12:26.085Z,9.01
2018-04-22T02:14:51.849Z,8.88
2018-04-22T02:17:17.630Z,8.86
2018-04-22T02:19:43.409Z,8.98
2018-04-22T02:22:09.207Z,8.76
2018-04-22T02:24:34.977Z,8.77
2018-04-22T02:27:00.755Z,8.58
2018-04-22T02:29:26.556Z,9.03
2018-04-22T02:31:52.331Z,8.50
2018-04-22T02:34:18.110Z,8.68
2018-04-22T02:36:43.916Z,8.88
2018-04-22T02:39:09.701Z,8.55
2018-04-22T02:41:35.479Z,8.54
2018-04-22T02:44:01.288Z,8.86
2018-04-22T02:46:27.078Z,8.12
2018-04-22T02:48:52.849Z,8.10
2018-04-22T02:51:18.654Z,8.53
2018-04-22T02:53:44.431Z,8.58
2018-04-22T02:56:10.205Z,8.80
2018-04-22T02:58:36.011Z,8.64
2018-04-22T03:01:01.800Z,8.62
2018-04-22T03:03:27.581Z,8.01
2018-04-22T03:05:53.377Z,7.96
2018-04-22T03:08:19.157Z,7.97
2018-04-22T03:10:44.944Z,8.35
2018-04-22T03:13:10.717Z,8.29
2018-04-22T03:15:36.486Z,8.20
2018-04-22T03:18:02.321Z,8.33
2018-04-22T03:20:28.120Z,8.53
2018-04-22T03:22:53.933Z,8.25
2018-04-22T03:25:19.749Z,8.25
2018-04-22T03:27:45.553Z,8.15
2018-04-22T03:30:11.346Z,8.06
2018-04-22T03:32:37.129Z,8.07
2018-04-22T03:35:02.916Z,7.79
2018-04-22T03:37:28.705Z,7.63
2018-04-22T03:39:54.526Z,7.56
2018-04-22T03:42:20.328Z,7.59
2018-04-22T03:44:46.121Z,7.54
2018-04-22T03:47:11.914Z,7.40
2018-04-22T03:49:37.709Z,7.51
2018-04-22T03:52:03.492Z,7.58
2018-04-22T03:54:29.291Z,7.66
2018-04-22T03:56:55.394Z,7.83
2018-04-22T03:59:21.173Z,7.57
2018-04-22T04:01:47.014Z,7.37
2018-04-22T04:04:12.802Z,7.31
2018-04-22T04:06:38.651Z,7.45
2018-04-22T04:09:04.469Z,7.40
2018-04-22T04:11:30.262Z,7.45
2018-04-22T04:13:56.209Z,7.58
2018-04-22T04:16:21.988Z,7.43
2018-04-22T04:19:01.136Z,7.44
2018-04-22T04:21:39.321Z,7.55
2018-04-22T04:27:24.556Z,7.63
2018-04-22T04:29:50.345Z,7.56
2018-04-22T04:32:16.135Z,7.60
2018-04-22T04:34:41.940Z,7.64
2018-04-22T04:37:07.743Z,7.61
2018-04-22T04:39:33.543Z,7.49
2018-04-22T04:41:59.318Z,7.53
2018-04-22T04:44:25.109Z,7.64
2018-04-22T04:46:51.535Z,7.72
2018-04-22T04:49:17.309Z,8.01
2018-04-22T04:51:43.077Z,8.13
2018-04-22T04:54:09.062Z,7.89
2018-04-22T04:56:34.882Z,7.54
2018-04-22T04:59:00.671Z,7.60
2018-04-22T05:01:26.481Z,7.74
2018-04-22T05:03:52.272Z,7.75
2018-04-22T05:06:18.066Z,7.75
2018-04-22T05:08:43.865Z,7.66
2018-04-22T05:11:16.663Z,7.65
2018-04-22T05:13:42.437Z,7.78
2018-04-22T05:16:08.238Z,7.91
2018-04-22T05:18:34.036Z,7.81
2018-04-22T05:20:59.841Z,7.81
2018-04-22T05:23:25.625Z,7.95
2018-04-22T05:25:51.410Z,8.03
2018-04-22T05:28:17.199Z,8.10
2018-04-22T05:30:42.977Z,8.24
2018-04-22T05:33:08.766Z,8.31
2018-04-22T05:35:34.586Z,8.27
2018-04-22T05:38:00.377Z,8.32
2018-04-22T05:40:26.153Z,8.43
2018-04-22T05:42:51.959Z,8.61
2018-04-22T05:45:17.738Z,8.67
2018-04-22T05:47:43.530Z,8.75
2018-04-22T05:50:09.314Z,8.88
2018-04-22T05:52:35.090Z,9.04
2018-04-22T05:55:00.868Z,9.12
2018-04-22T05:57:26.906Z,9.26
2018-04-22T05:59:52.697Z,9.39
2018-04-22T06:02:18.514Z,9.50
2018-04-22T06:04:44.278Z,9.62
2018-04-22T06:07:10.075Z,9.73
2018-04-22T06:09:35.857Z,9.81
2018-04-22T06:12:01.649Z,9.92
2018-04-22T06:14:27.440Z,10.03
2018-04-22T06:16:53.231Z,10.15
2018-04-22T06:19:19.010Z,10.23
2018-04-22T06:21:44.826Z,10.33
2018-04-22T06:24:10.629Z,10.36
2018-04-22T06:26:36.414Z,10.53
2018-04-22T06:29:02.188Z,10.58
2018-04-22T06:31:28.167Z,10.63
2018-04-22T06:33:54.002Z,10.67
2018-04-22T06:36:19.796Z,10.85
2018-04-22T06:38:45.625Z,11.23
2018-04-22T06:41:18.527Z,11.35
2018-04-22T06:43:44.323Z,11.39
2018-04-22T06:46:10.132Z,11.50
2018-04-22T06:48:35.910Z,11.51
2018-04-22T06:51:01.690Z,11.65
2018-04-22T06:53:27.490Z,11.73
2018-04-22T06:55:53.277Z,11.78
2018-04-22T06:58:19.061Z,11.88
2018-04-22T07:00:44.850Z,11.90
2018-04-22T07:03:10.617Z,12.19
2018-04-22T07:05:36.398Z,12.16
2018-04-22T07:08:02.190Z,12.20
2018-04-22T07:10:27.977Z,12.09
2018-04-22T07:12:53.773Z,12.11
2018-04-22T07:15:19.565Z,12.27
2018-04-22T07:17:45.343Z,12.37
2018-04-22T07:20:11.149Z,12.48
2018-04-22T07:22:37.113Z,12.51
2018-04-22T07:25:02.924Z,12.64
2018-04-22T07:27:28.713Z,12.71
2018-04-22T07:29:54.524Z,12.80
2018-04-22T07:32:20.318Z,12.93
2018-04-22T07:34:46.089Z,13.00
2018-04-22T07:37:11.903Z,13.09
2018-04-22T07:39:37.674Z,13.25
2018-04-22T07:42:07.346Z,13.30
2018-04-22T07:44:33.168Z,13.34
2018-04-22T07:46:58.945Z,13.38
2018-04-22T07:49:24.748Z,13.61
2018-04-22T07:51:50.722Z,13.78
2018-04-22T07:54:16.546Z,14.02
2018-04-22T07:56:42.342Z,14.14
2018-04-22T07:59:08.418Z,14.10
2018-04-22T08:01:34.266Z,14.11
2018-04-22T08:04:00.069Z,14.25
2018-04-22T08:06:26.250Z,14.40
2018-04-22T08:08:53.083Z,14.55
2018-04-22T08:11:18.915Z,14.48
2018-04-22T08:13:44.765Z,14.36
2018-04-22T08:16:12.832Z,14.42
2018-04-22T08:18:39.230Z,14.47
2018-04-22T08:21:05.253Z,14.76
2018-04-22T08:23:31.070Z,14.83
2018-04-22T08:25:56.878Z,14.88
2018-04-22T08:28:22.694Z,14.89
2018-04-22T08:30:48.496Z,14.95
2018-04-22T08:33:14.356Z,14.98
2018-04-22T08:35:40.267Z,15.14
2018-04-22T08:38:06.111Z,15.30
2018-04-22T08:40:31.911Z,15.39
2018-04-22T08:42:57.689Z,15.50
2018-04-22T08:45:23.530Z,15.61
2018-04-22T08:47:49.321Z,15.74
2018-04-22T08:50:15.101Z,15.82
2018-04-22T08:52:40.898Z,15.75
2018-04-22T08:55:06.718Z,15.85
2018-04-22T08:57:32.493Z,15.93
2018-04-22T08:59:58.323Z,16.01
2018-04-22T09:02:24.102Z,16.14
2018-04-22T09:04:49.904Z,16.16
2018-04-22T09:07:16.000Z,16.35
2018-04-22T09:09:41.785Z,16.49
2018-04-22T09:12:07.585Z,16.47
2018-04-22T09:14:33.394Z,16.57
2018-04-22T09:16:59.177Z,16.74
2018-04-22T09:19:25.249Z,16.76
2018-04-22T09:21:51.025Z,16.76
2018-04-22T09:24:16.794Z,16.79
2018-04-22T09:26:42.576Z,16.96
2018-04-22T09:29:08.378Z,17.03
2018-04-22T09:31:34.173Z,17.01
2018-04-22T09:33:59.970Z,17.09
2018-04-22T09:36:25.767Z,17.26
2018-04-22T09:38:51.737Z,17.14
2018-04-22T09:41:17.541Z,17.36
2018-04-22T09:43:43.317Z,17.55
2018-04-22T09:46:09.141Z,17.76
2018-04-22T09:48:34.954Z,17.84
2018-04-22T09:51:00.744Z,17.89
2018-04-22T09:53:26.810Z,17.84
2018-04-22T09:55:52.590Z,17.98
2018-04-22T09:58:18.394Z,18.09
2018-04-22T10:00:46.113Z,18.15
2018-04-22T10:03:11.936Z,18.16
2018-04-22T10:05:43.940Z,18.32
2018-04-22T10:08:09.742Z,18.50
2018-04-22T10:10:35.525Z,18.75
2018-04-22T10:13:01.318Z,18.61
2018-04-22T10:15:27.126Z,18.63
2018-04-22T10:17:52.927Z,18.70
2018-04-22T10:20:18.722Z,18.41
2018-04-22T10:22:44.522Z,18.56
2018-04-22T10:25:10.304Z,18.81
2018-04-22T10:27:36.081Z,18.55
2018-04-22T10:30:01.881Z,18.56
2018-04-22T10:32:27.665Z,18.87
2018-04-22T10:34:53.471Z,19.11
2018-04-22T10:37:19.283Z,19.34
2018-04-22T10:39:45.318Z,19.43
2018-04-22T10:42:11.167Z,19.52
2018-04-22T10:44:37.369Z,19.55
2018-04-22T10:47:03.169Z,19.75
2018-04-22T10:49:28.983Z,19.72
2018-04-22T10:51:54.756Z,19.54
2018-04-22T10:54:20.537Z,19.79
2018-04-22T10:56:46.366Z,20.05
2018-04-22T10:59:12.147Z,20.06
2018-04-22T11:01:37.922Z,20.10
2018-04-22T11:04:03.731Z,20.12
2018-04-22T11:06:29.519Z,20.20
2018-04-22T11:08:55.320Z,20.07
2018-04-22T11:11:21.205Z,20.09
2018-04-22T11:13:46.988Z,20.31
2018-04-22T11:16:12.763Z,20.19
2018-04-22T11:18:38.550Z,20.39
2018-04-22T11:21:04.374Z,20.47
2018-04-22T11:23:30.177Z,20.57
2018-04-22T11:25:55.989Z,20.47
2018-04-22T11:28:21.771Z,20.61
2018-04-22T11:30:47.565Z,20.77
2018-04-22T11:33:13.370Z,20.82
2018-04-22T11:35:39.153Z,20.87
2018-04-22T11:38:04.946Z,20.95
2018-04-22T11:40:30.760Z,20.93
2018-04-22T11:42:56.545Z,20.77
2018-04-22T11:45:22.326Z,20.84
2018-04-22T11:47:48.221Z,20.95
2018-04-22T11:50:14.013Z,21.00
2018-04-22T11:52:39.822Z,20.84
2018-04-22T11:55:05.628Z,20.98
2018-04-22T11:57:31.413Z,21.27
2018-04-22T11:59:57.237Z,21.35
2018-04-22T12:02:23.036Z,21.41
2018-04-22T12:04:48.844Z,21.44
2018-04-22T12:07:14.689Z,21.24
2018-04-22T12:09:40.477Z,21.33
2018-04-22T12:12:06.254Z,21.47
2018-04-22T12:14:32.412Z,21.67
2018-04-22T12:16:58.218Z,22.05
2018-04-22T12:19:24.009Z,21.89
2018-04-22T12:21:49.790Z,21.70
2018-04-22T12:24:15.585Z,21.81
2018-04-22T12:26:41.397Z,22.09
2018-04-22T12:29:07.192Z,22.48
2018-04-22T12:31:32.990Z,22.40
2018-04-22T12:33:58.796Z,22.20
2018-04-22T12:36:24.581Z,22.13
2018-04-22T12:38:50.361Z,22.34
2018-04-22T12:41:16.195Z,22.41
2018-04-22T12:43:42.007Z,22.58
2018-04-22T12:46:07.785Z,23.10
2018-04-22T12:48:33.578Z,23.26
2018-04-22T12:50:59.389Z,23.10
2018-04-22T12:53:25.187Z,22.85
2018-04-22T12:55:50.962Z,22.71
2018-04-22T12:58:16.746Z,22.37
2018-04-22T13:00:42.553Z,22.32
2018-04-22T13:03:08.374Z,22.20
2018-04-22T13:05:34.190Z,22.41
2018-04-22T13:08:00.111Z,22.47
2018-04-22T13:10:25.903Z,23.03
2018-04-22T13:12:51.698Z,23.33
2018-04-22T13:15:17.495Z,23.54
2018-04-22T13:17:43.281Z,23.85
2018-04-22T13:20:09.085Z,24.02
2018-04-22T13:22:34.899Z,24.37
2018-04-22T13:25:00.685Z,24.59
2018-04-22T13:27:26.465Z,24.78
2018-04-22T13:29:52.286Z,25.06
2018-04-22T13:32:18.077Z,24.85
2018-04-22T13:34:43.930Z,25.16
2018-04-22T13:37:09.799Z,25.11
2018-04-22T13:39:35.559Z,25.13
2018-04-22T13:42:01.353Z,25.50
2018-04-22T13:44:27.377Z,25.61
2018-04-22T13:46:53.221Z,25.36
2018-04-22T13:49:19.014Z,25.29
2018-04-22T13:51:44.823Z,25.17
2018-04-22T13:54:10.607Z,25.59
2018-04-22T13:56:36.399Z,25.30
2018-04-22T13:59:02.230Z,25.77
2018-04-22T14:01:28.031Z,26.20
2018-04-22T14:03:53.886Z,25.28
2018-04-22T14:06:19.690Z,25.90
2018-04-22T14:08:45.478Z,26.12
2018-04-22T14:11:11.261Z,25.47
2018-04-22T14:13:37.058Z,24.88
2018-04-22T14:16:02.865Z,25.13
2018-04-22T14:18:29.625Z,25.12
2018-04-22T14:20:55.512Z,25.59
2018-04-22T14:23:21.298Z,25.64
2018-04-22T14:25:47.082Z,25.74
2018-04-22T14:28:12.890Z,26.35
2018-04-22T14:30:38.698Z,25.83
2018-04-22T14:33:04.483Z,25.77
2018-04-22T14:35:30.274Z,25.99
2018-04-22T14:37:56.070Z,25.94
2018-04-22T14:40:21.929Z,26.00
2018-04-22T14:42:47.714Z,25.42
2018-04-22T14:45:25.921Z,25.21
2018-04-22T14:47:51.705Z,24.66
2018-04-22T14:50:17.774Z,25.27
2018-04-22T14:52:43.572Z,25.31
2018-04-22T14:55:09.367Z,25.36
2018-04-22T14:57:35.154Z,25.28
2018-04-22T15:00:00.987Z,25.24
2018-04-22T15:02:26.797Z,25.09
2018-04-22T15:04:52.585Z,24.95
2018-04-22T15:07:18.706Z,25.45
2018-04-22T15:09:44.524Z,25.24
2018-04-22T15:12:10.335Z,24.72
2018-04-22T15:14:36.267Z,24.98
2018-04-22T15:17:02.096Z,24.73
2018-04-22T15:19:27.918Z,24.51
2018-04-22T15:21:53.685Z,24.65
2018-04-22T15:24:19.498Z,24.76
2018-04-22T15:26:45.286Z,25.10
2018-04-22T15:29:11.285Z,24.86
2018-04-22T15:31:37.073Z,24.96
2018-04-22T15:34:02.853Z,24.63
2018-04-22T15:36:29.067Z,24.46
2018-04-22T15:38:54.884Z,24.64
2018-04-22T15:41:21.589Z,24.68
2018-04-22T15:43:47.906Z,24.88
2018-04-22T15:46:13.737Z,25.00
2018-04-22T15:48:39.729Z,24.83
2018-04-22T15:51:06.360Z,24.48
2018-04-22T15:53:33.102Z,24.32
2018-04-22T15:55:59.574Z,24.09
2018-04-22T15:58:25.437Z,24.03
2018-04-22T16:00:51.237Z,23.91
2018-04-22T16:03:17.062Z,23.89
2018-04-22T16:05:42.873Z,24.09
2018-04-22T16:08:08.711Z,23.91
2018-04-22T16:10:34.508Z,23.86
2018-04-22T16:13:00.977Z,24.11
2018-04-22T16:15:26.795Z,23.75
2018-04-22T16:17:54.953Z,23.59
2018-04-22T16:20:22.819Z,23.50
2018-04-22T16:22:49.231Z,23.45
2018-04-22T16:25:15.021Z,23.26
2018-04-22T16:27:41.892Z,23.22
2018-04-22T16:30:07.726Z,23.09
2018-04-22T16:32:33.583Z,23.12
2018-04-22T16:34:59.371Z,22.97
2018-04-22T16:37:25.198Z,23.17
2018-04-22T16:39:50.977Z,23.11
2018-04-22T16:42:16.778Z,23.00
2018-04-22T16:44:42.571Z,22.95
2018-04-22T16:47:08.373Z,22.88
2018-04-22T16:49:34.197Z,22.82
2018-04-22T16:51:59.982Z,22.76
2018-04-22T16:54:25.812Z,22.87
2018-04-22T16:56:52.119Z,22.77
2018-04-22T16:59:18.682Z,22.66
2018-04-22T17:01:44.536Z,22.65
2018-04-22T17:04:10.501Z,22.63
2018-04-22T17:06:36.294Z,22.67
2018-04-22T17:09:03.919Z,22.57
2018-04-22T17:11:29.730Z,22.58
2018-04-22T17:13:55.542Z,22.43
2018-04-22T17:16:21.388Z,22.31
2018-04-22T17:18:47.173Z,22.37
2018-04-22T17:21:12.994Z,22.31
2018-04-22T17:23:38.890Z,22.28
2018-04-22T17:26:04.720Z,22.19
2018-04-22T17:28:37.548Z,22.19
2018-04-22T17:31:04.375Z,22.07
2018-04-22T17:33:31.121Z,22.06
2018-04-22T17:35:56.963Z,22.02
2018-04-22T17:38:22.769Z,21.99
2018-04-22T17:40:48.587Z,21.87
2018-04-22T17:43:14.396Z,21.87
2018-04-22T17:45:40.233Z,21.77
2018-04-22T17:48:06.067Z,21.68
2018-04-22T17:50:31.882Z,21.60
2018-04-22T17:52:57.967Z,21.59
2018-04-22T17:55:23.759Z,21.56
2018-04-22T17:57:49.598Z,21.53
2018-04-22T18:00:15.425Z,21.47
2018-04-22T18:02:41.226Z,21.33
2018-04-22T18:05:07.048Z,21.31
2018-04-22T18:07:32.859Z,21.24
2018-04-22T18:09:58.654Z,21.18
2018-04-22T18:12:24.480Z,21.10
2018-04-22T18:14:50.301Z,21.15
2018-04-22T18:17:16.318Z,21.46
2018-04-22T18:19:42.113Z,21.40
2018-04-22T18:22:08.023Z,21.32
2018-04-22T18:24:33.828Z,21.49
2018-04-22T18:26:59.625Z,21.22
2018-04-22T18:29:25.443Z,21.23
2018-04-22T18:31:52.156Z,21.05
2018-04-22T18:34:18.019Z,20.76
2018-04-22T18:36:43.841Z,20.54
2018-04-22T18:39:09.656Z,20.42
2018-04-22T18:41:35.826Z,20.22
2018-04-22T18:44:08.603Z,20.15
2018-04-22T18:46:34.394Z,20.01
2018-04-22T18:49:00.207Z,19.86
2018-04-22T18:51:26.016Z,19.68
2018-04-22T18:53:51.807Z,19.49
2018-04-22T18:56:17.763Z,19.41
2018-04-22T18:58:43.591Z,19.25
2018-04-22T19:01:09.568Z,19.46
2018-04-22T19:03:35.386Z,19.46
2018-04-22T19:06:01.625Z,19.36
2018-04-22T19:08:27.563Z,19.37
2018-04-22T19:10:53.378Z,19.34
2018-04-22T19:13:19.213Z,19.28
2018-04-22T19:15:44.998Z,19.41
2018-04-22T19:18:11.019Z,19.29
2018-04-22T19:20:36.863Z,19.06
2018-04-22T19:23:02.748Z,18.70
2018-04-22T19:25:28.494Z,18.66
2018-04-22T19:27:54.287Z,18.64
2018-04-22T19:30:20.115Z,19.20
2018-04-22T19:32:46.051Z,19.34
2018-04-22T19:35:11.844Z,19.46
2018-04-22T19:37:37.958Z,19.17
2018-04-22T19:40:03.771Z,19.12
2018-04-22T19:42:29.685Z,19.05
2018-04-22T19:44:55.481Z,19.22
2018-04-22T19:47:21.276Z,18.63
2018-04-22T19:49:47.551Z,18.22
2018-04-22T19:52:13.337Z,18.00
2018-04-22T19:54:39.149Z,17.75
2018-04-22T19:57:05.062Z,17.75
2018-04-22T19:59:30.868Z,17.67
2018-04-22T20:01:56.676Z,17.67
2018-04-22T20:04:22.576Z,17.61
2018-04-22T20:06:48.391Z,17.52
2018-04-22T20:09:14.220Z,17.50
2018-04-22T20:11:40.002Z,17.40
2018-04-22T20:14:05.799Z,17.50
2018-04-22T20:16:31.606Z,17.42
2018-04-22T20:18:57.415Z,17.36
2018-04-22T20:21:23.211Z,17.32
2018-04-22T20:23:49.057Z,17.32
2018-04-22T20:26:14.900Z,17.30
2018-04-22T20:28:40.695Z,17.42
2018-04-22T20:31:06.497Z,17.68
2018-04-22T20:33:32.293Z,18.08
2018-04-22T20:35:58.110Z,17.99
2018-04-22T20:38:24.139Z,18.26
2018-04-22T20:40:49.993Z,18.10
2018-04-22T20:43:15.824Z,18.53
2018-04-22T20:45:41.607Z,18.78
2018-04-22T20:48:07.502Z,18.74
2018-04-22T20:50:33.285Z,18.74
2018-04-22T20:52:59.064Z,18.58
2018-04-22T20:55:25.121Z,18.46
2018-04-22T20:57:52.490Z,18.56
2018-04-22T21:00:18.274Z,18.91
2018-04-22T21:02:44.248Z,18.83
2018-04-22T21:05:10.175Z,19.24
2018-04-22T21:07:36.002Z,19.21
2018-04-22T21:10:01.816Z,18.50
2018-04-22T21:12:27.594Z,18.36
2018-04-22T21:14:53.508Z,18.68
2018-04-22T21:17:19.325Z,19.11
2018-04-22T21:19:45.103Z,19.19
2018-04-22T21:22:10.890Z,19.37
2018-04-22T21:24:36.693Z,19.47
2018-04-22T21:27:02.522Z,19.59
2018-04-22T21:29:28.300Z,19.56
2018-04-22T21:31:54.110Z,19.57
2018-04-22T21:34:19.936Z,19.49
2018-04-22T21:36:45.725Z,19.42
2018-04-22T21:39:11.550Z,19.39
2018-04-22T21:41:37.342Z,19.32
2018-04-22T21:44:03.135Z,19.33
2018-04-22T21:46:29.271Z,19.23
2018-04-22T21:48:55.080Z,19.04
2018-04-22T21:51:21.147Z,18.89
2018-04-22T21:53:46.947Z,18.86
2018-04-22T21:56:12.738Z,18.86
2018-04-22T21:58:38.789Z,18.89
2018-04-22T22:01:04.619Z,18.92
2018-04-22T22:03:30.423Z,18.86
2018-04-22T22:05:56.244Z,18.75
2018-04-22T22:08:22.026Z,18.60
2018-04-22T22:10:47.819Z,18.37
2018-04-22T22:13:13.789Z,18.11
2018-04-22T22:15:39.585Z,17.99
2018-04-22T22:18:05.407Z,17.96
2018-04-22T22:20:31.204Z,17.77
2018-04-22T22:22:56.996Z,17.67
2018-04-22T22:25:22.789Z,17.75
2018-04-22T22:27:48.592Z,17.72
2018-04-22T22:30:14.374Z,17.95
2018-04-22T22:32:40.405Z,17.57
2018-04-22T22:35:06.184Z,17.55
2018-04-22T22:37:31.990Z,17.68
2018-04-22T22:39:57.770Z,17.66
2018-04-22T22:42:23.727Z,17.90
2018-04-22T22:44:49.725Z,17.76
2018-04-22T22:47:15.522Z,18.06
2018-04-22T22:49:41.314Z,17.81
2018-04-22T22:52:07.114Z,17.55
2018-04-22T22:54:32.905Z,17.89
2018-04-22T22:56:58.726Z,17.92
2018-04-22T22:59:24.521Z,17.34
2018-04-22T23:01:50.321Z,17.63
2018-04-22T23:04:16.305Z,17.61
2018-04-22T23:06:42.101Z,17.69
2018-04-22T23:09:07.931Z,17.63
2018-04-22T23:11:33.710Z,17.54
2018-04-22T23:13:59.501Z,17.31
2018-04-22T23:16:25.308Z,17.49
2018-04-22T23:18:51.118Z,17.05
2018-04-22T23:21:16.917Z,16.64
2018-04-22T23:23:42.733Z,16.63
2018-04-22T23:26:08.669Z,16.93
2018-04-22T23:28:34.437Z,17.30
2018-04-22T23:31:00.245Z,16.95
2018-04-22T23:33:26.038Z,16.93
2018-04-22T23:35:51.814Z,16.76
2018-04-22T23:38:17.632Z,17.12
2018-04-22T23:40:43.425Z,16.77
2018-04-22T23:43:09.231Z,17.15
2018-04-22T23:45:35.028Z,17.08
2018-04-22T23:48:00.816Z,16.66
2018-04-22T23:50:26.620Z,16.61
2018-04-22T23:52:52.402Z,16.53
2018-04-22T23:55:18.337Z,16.72
2018-04-22T23:57:44.150Z,17.10
